Time;durP1;ratioP1;P1;durP2;ratioP2;P2;SDS_P1;SDS_P2;PMS_P1;PMS_P2;Temp;Humidity;BMP_temperature;BMP_pressure;BME280_temperature;BME280_humidity;BME280_pressure;Samples;Min_cycle;Max_cycle;Signal;HPM_P1;HPM_P2
2020/12/28 00:00:29;;;;;;;12.63;9.20;;;6.10;96.40;;;;;;5059500;28;20032;-93
2020/12/28 00:02:55;;;;;;;10.82;8.48;;;6.00;96.40;;;;;;5075855;28;20035;-89
2020/12/28 00:05:22;;;;;;;10.70;8.13;;;6.00;96.40;;;;;;5075645;28;20012;-94
2020/12/28 00:07:52;;;;;;;9.18;7.38;;;6.00;96.40;;;;;;5093560;28;20035;-94
2020/12/28 00:10:19;;;;;;;13.40;9.73;;;6.00;96.40;;;;;;5070670;28;20025;-93
2020/12/28 00:12:48;;;;;;;12.85;10.05;;;6.00;96.40;;;;;;5065764;28;20500;-93
2020/12/28 00:15:26;;;;;;;12.13;9.00;;;6.00;96.40;;;;;;5079151;28;20016;-92
2020/12/28 00:17:55;;;;;;;12.48;9.43;;;5.90;96.50;;;;;;5058607;28;20024;-93
2020/12/28 00:20:23;;;;;;;11.50;9.18;;;5.90;96.50;;;;;;5057782;28;20024;-93
2020/12/28 00:22:49;;;;;;;12.00;9.77;;;5.90;96.60;;;;;;5065070;28;20036;-93
2020/12/28 00:25:18;;;;;;;14.82;10.70;;;5.90;96.50;;;;;;5077357;28;20484;-93
2020/12/28 00:27:45;;;;;;;14.85;10.77;;;5.90;96.60;;;;;;5054277;28;20142;-88
2020/12/28 00:30:10;;;;;;;12.25;9.02;;;5.90;96.60;;;;;;5069606;28;20123;-92
2020/12/28 00:32:36;;;;;;;12.38;9.60;;;5.90;96.60;;;;;;5055389;28;20097;-91
2020/12/28 00:35:07;;;;;;;12.65;10.20;;;5.90;96.60;;;;;;5051058;28;20032;-93
2020/12/28 00:37:33;;;;;;;13.13;10.35;;;5.90;96.60;;;;;;5056288;28;20044;-92
2020/12/28 00:39:58;;;;;;;15.60;12.02;;;5.90;96.50;;;;;;5048962;28;20051;-92
2020/12/28 00:42:24;;;;;;;14.82;10.85;;;6.00;96.50;;;;;;5057849;28;20035;-94
2020/12/28 00:44:50;;;;;;;14.32;10.55;;;5.90;96.50;;;;;;5091667;28;20024;-93
2020/12/28 00:47:16;;;;;;;13.98;11.05;;;5.90;96.50;;;;;;5064156;28;20032;-94
2020/12/28 00:49:41;;;;;;;15.32;11.35;;;6.00;96.50;;;;;;5055189;28;20047;-93
2020/12/28 00:52:07;;;;;;;15.25;11.68;;;6.00;96.40;;;;;;5081644;28;20043;-94
2020/12/28 00:54:33;;;;;;;15.80;11.15;;;5.90;96.40;;;;;;5041798;28;20040;-93
2020/12/28 00:57:00;;;;;;;12.48;9.93;;;5.90;96.50;;;;;;5074962;28;20039;-93
2020/12/28 00:59:26;;;;;;;14.93;10.93;;;5.90;96.60;;;;;;5041864;28;20032;-93
2020/12/28 01:01:55;;;;;;;13.50;9.95;;;5.90;96.50;;;;;;5058229;28;20535;-93
2020/12/28 01:04:21;;;;;;;13.43;9.93;;;5.90;96.60;;;;;;5075385;28;20024;-92
2020/12/28 01:06:47;;;;;;;14.10;10.95;;;5.90;96.50;;;;;;5058539;28;20028;-93
2020/12/28 01:09:13;;;;;;;14.27;10.38;;;5.80;96.50;;;;;;5058215;28;20024;-93
2020/12/28 01:11:39;;;;;;;13.77;10.77;;;5.80;96.50;;;;;;5057998;28;20492;-94
2020/12/28 01:14:04;;;;;;;13.50;10.25;;;5.80;96.60;;;;;;5041494;28;20073;-93
2020/12/28 01:16:30;;;;;;;13.80;10.15;;;5.80;96.60;;;;;;5059107;28;20054;-91
2020/12/28 01:18:55;;;;;;;13.07;9.32;;;5.80;96.60;;;;;;5088785;28;20070;-91
2020/12/28 01:21:22;;;;;;;12.80;9.10;;;5.80;96.50;;;;;;5056235;28;20024;-94
2020/12/28 01:23:48;;;;;;;10.88;7.95;;;5.80;96.50;;;;;;5074030;28;20103;-93
2020/12/28 01:26:15;;;;;;;11.52;9.10;;;5.80;96.50;;;;;;5065560;28;20052;-92
2020/12/28 01:28:41;;;;;;;12.95;9.10;;;5.90;96.50;;;;;;5056201;28;20084;-92
2020/12/28 01:31:07;;;;;;;13.18;8.82;;;5.90;96.40;;;;;;5057674;28;20059;-92
2020/12/28 01:33:33;;;;;;;10.05;7.68;;;5.90;96.40;;;;;;5060641;28;20017;-93
2020/12/28 01:35:58;;;;;;;12.07;7.90;;;5.90;96.40;;;;;;5044212;28;20073;-93
2020/12/28 01:38:24;;;;;;;9.10;6.80;;;5.90;96.30;;;;;;5058476;28;20039;-93
2020/12/28 01:40:50;;;;;;;10.73;7.28;;;6.00;96.40;;;;;;5061102;28;20024;-91
2020/12/28 01:43:17;;;;;;;11.27;7.28;;;5.90;96.30;;;;;;5055984;28;20367;-93
2020/12/28 01:45:43;;;;;;;9.27;7.30;;;5.90;96.30;;;;;;5071322;28;20056;-93
2020/12/28 01:48:09;;;;;;;10.80;6.70;;;6.00;96.30;;;;;;5068241;28;20024;-91
2020/12/28 01:50:35;;;;;;;12.75;7.70;;;6.00;96.20;;;;;;5056942;28;20028;-91
2020/12/28 01:53:01;;;;;;;10.82;8.02;;;6.00;96.10;;;;;;5076170;28;20029;-92
2020/12/28 01:55:27;;;;;;;10.20;7.65;;;5.90;96.00;;;;;;5058580;28;20032;-93
2020/12/28 01:57:53;;;;;;;10.95;7.43;;;5.90;96.00;;;;;;5038445;28;20035;-91
2020/12/28 02:00:18;;;;;;;8.80;7.40;;;5.90;95.90;;;;;;5058432;28;20029;-92
2020/12/28 02:02:44;;;;;;;9.40;6.95;;;5.90;96.00;;;;;;5054546;28;20178;-91
2020/12/28 02:05:10;;;;;;;8.90;7.00;;;5.90;96.00;;;;;;5059506;28;20494;-93
2020/12/28 02:07:39;;;;;;;10.77;7.35;;;5.90;96.00;;;;;;5052482;28;20050;-93
2020/12/28 02:10:09;;;;;;;9.70;6.68;;;5.80;96.10;;;;;;5074816;28;20054;-92
2020/12/28 02:12:36;;;;;;;9.93;7.30;;;5.80;96.10;;;;;;5075366;28;20040;-92
2020/12/28 02:15:02;;;;;;;8.68;6.35;;;5.80;96.10;;;;;;5043317;28;20530;-92
2020/12/28 02:17:27;;;;;;;8.52;6.50;;;5.80;96.10;;;;;;5053856;28;20039;-91
2020/12/28 02:19:53;;;;;;;8.27;6.22;;;5.80;96.10;;;;;;5037848;28;20024;-90
2020/12/28 02:22:19;;;;;;;9.70;7.03;;;5.80;96.10;;;;;;5072256;28;20089;-91
2020/12/28 02:24:44;;;;;;;7.63;6.18;;;5.70;96.10;;;;;;5057755;28;20032;-91
2020/12/28 02:27:10;;;;;;;9.50;6.30;;;5.80;96.10;;;;;;5058273;28;20032;-95
2020/12/28 02:29:36;;;;;;;9.02;5.95;;;5.80;96.00;;;;;;5060173;28;20056;-94
2020/12/28 02:32:01;;;;;;;10.45;6.72;;;5.70;96.00;;;;;;5061104;28;20045;-93
2020/12/28 02:34:27;;;;;;;10.48;6.50;;;5.80;96.00;;;;;;5048727;28;20056;-90
2020/12/28 02:36:52;;;;;;;8.27;6.60;;;5.80;96.00;;;;;;5044640;28;20383;-91
2020/12/28 02:39:18;;;;;;;9.65;6.50;;;5.80;96.00;;;;;;5072121;28;20039;-91
2020/12/28 02:41:43;;;;;;;8.80;6.30;;;5.80;96.00;;;;;;5069134;28;20029;-89
2020/12/28 02:44:09;;;;;;;8.02;6.32;;;5.70;96.00;;;;;;5060887;28;20097;-91
2020/12/28 02:46:35;;;;;;;10.38;6.03;;;5.80;96.10;;;;;;5060642;28;20028;-91
2020/12/28 02:49:00;;;;;;;9.13;6.28;;;5.80;96.10;;;;;;5048900;28;20036;-90
2020/12/28 02:51:26;;;;;;;8.85;6.22;;;5.80;96.00;;;;;;5057140;28;20093;-90
2020/12/28 02:53:52;;;;;;;9.00;6.20;;;5.80;96.00;;;;;;5085758;28;20092;-90
2020/12/28 02:56:17;;;;;;;8.35;6.53;;;5.80;96.00;;;;;;5057031;28;20037;-89
2020/12/28 02:58:43;;;;;;;9.88;6.40;;;5.80;96.00;;;;;;5065041;28;20084;-90
2020/12/28 03:01:09;;;;;;;8.75;6.47;;;5.90;95.80;;;;;;5063841;28;20024;-91
2020/12/28 03:03:34;;;;;;;8.43;6.28;;;5.90;95.80;;;;;;5071394;28;20028;-91
2020/12/28 03:06:00;;;;;;;8.80;6.57;;;5.90;95.80;;;;;;5051404;28;20032;-90
2020/12/28 03:08:26;;;;;;;9.32;6.97;;;5.90;95.70;;;;;;5046512;28;20024;-91
2020/12/28 03:10:51;;;;;;;9.85;6.70;;;5.90;95.50;;;;;;5060726;28;20029;-89
2020/12/28 03:13:17;;;;;;;12.15;7.80;;;5.90;95.40;;;;;;5059766;28;20555;-89
2020/12/28 03:15:42;;;;;;;9.95;6.35;;;5.90;95.30;;;;;;5061708;28;20528;-90
2020/12/28 03:18:08;;;;;;;9.63;6.00;;;6.00;95.40;;;;;;5030518;28;20021;-90
2020/12/28 03:20:34;;;;;;;10.00;6.68;;;6.00;95.30;;;;;;5049924;28;20029;-92
2020/12/28 03:22:59;;;;;;;9.07;6.70;;;6.00;95.20;;;;;;5086034;28;20064;-86
2020/12/28 03:25:25;;;;;;;11.45;6.85;;;6.00;95.30;;;;;;5062772;28;20020;-91
2020/12/28 03:27:51;;;;;;;10.57;7.20;;;5.90;95.10;;;;;;5056763;28;20048;-89
2020/12/28 03:30:16;;;;;;;11.30;7.05;;;5.90;95.00;;;;;;5039848;28;20021;-90
2020/12/28 03:32:42;;;;;;;9.70;7.10;;;5.90;95.00;;;;;;5062799;28;20123;-90
2020/12/28 03:35:08;;;;;;;12.07;6.40;;;5.90;95.00;;;;;;5056020;28;20035;-91
2020/12/28 03:37:34;;;;;;;10.30;6.63;;;5.80;94.80;;;;;;5084703;28;20028;-89
2020/12/28 03:39:59;;;;;;;15.63;7.25;;;5.80;94.70;;;;;;5057388;28;20032;-89
2020/12/28 03:42:25;;;;;;;10.48;6.75;;;5.70;94.60;;;;;;5051697;28;20032;-89
2020/12/28 03:44:50;;;;;;;13.32;6.38;;;5.70;94.70;;;;;;5064020;28;20035;-91
2020/12/28 03:47:16;;;;;;;11.30;7.25;;;5.70;94.80;;;;;;5063143;28;20035;-90
2020/12/28 03:49:42;;;;;;;11.55;7.30;;;5.70;94.70;;;;;;5044525;28;20487;-90
2020/12/28 03:52:07;;;;;;;13.00;6.90;;;5.70;94.60;;;;;;5056198;28;20052;-91
2020/12/28 03:54:33;;;;;;;11.60;7.03;;;5.70;94.60;;;;;;5102749;28;20039;-90
2020/12/28 03:56:58;;;;;;;14.73;8.48;;;5.70;94.70;;;;;;5049245;28;20020;-89
2020/12/28 03:59:24;;;;;;;13.25;7.68;;;5.70;94.60;;;;;;5040794;28;20049;-91
2020/12/28 04:01:49;;;;;;;12.30;8.23;;;5.70;94.70;;;;;;5052116;28;20123;-91
2020/12/28 04:04:15;;;;;;;13.00;7.35;;;5.70;94.50;;;;;;5036216;28;20030;-91
2020/12/28 04:06:41;;;;;;;12.15;7.10;;;5.70;94.60;;;;;;5038953;28;20034;-89
2020/12/28 04:09:07;;;;;;;12.23;7.32;;;5.80;94.60;;;;;;5046399;28;20048;-90
2020/12/28 04:11:33;;;;;;;12.25;7.32;;;5.80;94.60;;;;;;5090311;28;20076;-90
2020/12/28 04:13:58;;;;;;;9.90;6.47;;;5.80;94.60;;;;;;5075993;28;20095;-90
2020/12/28 04:16:24;;;;;;;8.45;6.38;;;5.80;94.60;;;;;;5058997;28;20032;-90
2020/12/28 04:18:49;;;;;;;9.23;6.25;;;5.90;94.60;;;;;;5056453;28;20033;-91
2020/12/28 04:21:15;;;;;;;9.18;6.15;;;5.90;94.70;;;;;;5051475;28;20032;-90
2020/12/28 04:23:41;;;;;;;8.82;6.00;;;5.90;94.70;;;;;;5071130;28;20032;-91
2020/12/28 04:26:06;;;;;;;11.98;8.30;;;6.00;94.60;;;;;;5065974;28;20036;-90
2020/12/28 04:28:32;;;;;;;11.77;6.55;;;5.90;94.20;;;;;;5056658;28;20059;-91
2020/12/28 04:30:58;;;;;;;10.13;6.78;;;5.90;94.10;;;;;;5081682;28;20031;-90
2020/12/28 04:33:24;;;;;;;14.52;8.40;;;5.90;94.20;;;;;;5038502;28;20055;-91
2020/12/28 04:35:50;;;;;;;12.73;7.65;;;5.80;93.70;;;;;;5062328;28;20042;-91
2020/12/28 04:38:16;;;;;;;10.48;6.65;;;5.70;93.80;;;;;;5092659;28;20032;-89
2020/12/28 04:40:41;;;;;;;10.77;6.07;;;5.70;94.00;;;;;;5061163;28;20069;-90
2020/12/28 04:43:12;;;;;;;11.70;6.90;;;5.60;94.10;;;;;;5038435;28;20047;-89
2020/12/28 04:45:38;;;;;;;9.88;6.43;;;5.60;94.00;;;;;;5069495;28;20032;-91
2020/12/28 04:48:08;;;;;;;9.60;5.68;;;5.60;94.10;;;;;;5047244;28;20032;-91
2020/12/28 04:50:36;;;;;;;8.52;5.93;;;5.60;94.20;;;;;;5058390;28;20028;-91
2020/12/28 04:53:04;;;;;;;8.07;4.82;;;5.60;94.20;;;;;;5061429;28;20024;-91
2020/12/28 04:55:30;;;;;;;7.68;5.13;;;5.60;94.30;;;;;;5084829;28;20032;-90
2020/12/28 04:57:56;;;;;;;7.70;4.72;;;5.70;94.30;;;;;;5071742;28;20047;-90
2020/12/28 05:00:21;;;;;;;7.10;4.28;;;5.70;94.40;;;;;;5066339;28;20034;-90
2020/12/28 05:02:47;;;;;;;8.60;5.05;;;5.70;94.40;;;;;;5050396;28;20520;-90
2020/12/28 05:05:13;;;;;;;11.55;6.72;;;5.70;94.10;;;;;;5068689;28;20031;-91
2020/12/28 05:07:39;;;;;;;9.65;4.90;;;5.70;94.20;;;;;;5072982;28;20025;-90
2020/12/28 05:10:05;;;;;;;6.25;4.03;;;5.80;94.20;;;;;;5047287;28;20150;-91
2020/12/28 05:12:31;;;;;;;7.20;4.00;;;5.70;94.30;;;;;;5090299;28;20028;-91
2020/12/28 05:15:07;;;;;;;7.93;4.45;;;5.80;94.30;;;;;;5077154;28;20034;-90
2020/12/28 05:17:33;;;;;;;5.50;4.00;;;5.80;94.30;;;;;;5059105;28;20025;-91
2020/12/28 05:20:00;;;;;;;6.38;3.60;;;5.80;94.30;;;;;;5068027;28;20493;-91
2020/12/28 05:22:28;;;;;;;5.22;3.17;;;5.80;94.30;;;;;;5095650;28;20028;-91
2020/12/28 05:24:55;;;;;;;5.75;3.35;;;5.80;94.30;;;;;;5066940;28;20583;-90
2020/12/28 05:27:21;;;;;;;5.90;3.30;;;5.80;94.30;;;;;;5096477;28;20085;-89
2020/12/28 05:29:49;;;;;;;6.47;3.53;;;5.80;94.30;;;;;;5041592;28;20063;-90
2020/12/28 05:32:17;;;;;;;6.20;3.60;;;5.80;94.30;;;;;;5058660;28;20037;-90
2020/12/28 05:34:47;;;;;;;6.30;3.63;;;5.80;94.30;;;;;;5072903;28;20052;-90
2020/12/28 05:37:18;;;;;;;7.22;3.78;;;5.80;94.30;;;;;;5069102;28;20126;-90
2020/12/28 05:39:45;;;;;;;5.05;3.40;;;5.80;94.30;;;;;;5061443;28;20028;-90
2020/12/28 05:42:11;;;;;;;5.90;3.67;;;5.80;94.30;;;;;;5070047;28;20020;-87
2020/12/28 05:44:39;;;;;;;4.68;3.22;;;5.80;94.30;;;;;;5083285;28;20036;-90
2020/12/28 05:47:06;;;;;;;4.80;3.33;;;5.70;94.30;;;;;;5077215;28;20032;-90
2020/12/28 05:49:37;;;;;;;6.25;3.90;;;5.70;94.30;;;;;;5058826;28;20024;-91
2020/12/28 05:52:04;;;;;;;6.78;4.45;;;5.70;94.20;;;;;;5059266;28;20484;-90
2020/12/28 05:54:31;;;;;;;9.68;4.65;;;5.60;93.70;;;;;;5058833;28;20028;-91
2020/12/28 05:56:57;;;;;;;8.75;4.75;;;5.50;93.80;;;;;;5041433;28;20020;-90
2020/12/28 05:59:24;;;;;;;7.97;4.50;;;5.50;93.70;;;;;;5042560;28;20178;-90
2020/12/28 06:01:50;;;;;;;6.40;4.38;;;5.40;93.70;;;;;;5074617;28;20028;-90
2020/12/28 06:04:18;;;;;;;7.53;4.38;;;5.40;93.90;;;;;;5078767;28;20018;-91
2020/12/28 06:06:45;;;;;;;5.95;3.70;;;5.40;94.00;;;;;;5095831;28;20107;-89
2020/12/28 06:09:15;;;;;;;6.32;3.55;;;5.40;94.10;;;;;;5064163;28;20537;-89
2020/12/28 06:11:40;;;;;;;6.93;4.53;;;5.40;94.10;;;;;;5082950;28;20036;-92
2020/12/28 06:14:14;;;;;;;4.40;3.10;;;5.40;94.20;;;;;;5077589;28;20028;-91
2020/12/28 06:16:39;;;;;;;6.40;3.45;;;5.50;94.30;;;;;;5066530;28;20052;-91
2020/12/28 06:19:05;;;;;;;6.32;4.13;;;5.50;94.40;;;;;;5076081;28;20028;-90
2020/12/28 06:21:35;;;;;;;9.05;5.18;;;5.40;94.40;;;;;;5033903;28;20039;-90
2020/12/28 06:24:01;;;;;;;7.65;5.05;;;5.50;94.30;;;;;;5054663;28;20044;-90
2020/12/28 06:26:26;;;;;;;9.30;5.53;;;5.50;94.40;;;;;;5028853;28;20040;-90
2020/12/28 06:29:03;;;;;;;6.80;4.72;;;5.50;94.30;;;;;;5057870;28;20055;-90
2020/12/28 06:31:29;;;;;;;8.65;5.47;;;5.50;94.40;;;;;;5057638;28;20037;-91
2020/12/28 06:33:55;;;;;;;8.32;5.30;;;5.50;94.40;;;;;;5051822;28;20473;-88
2020/12/28 06:36:20;;;;;;;8.15;5.53;;;5.50;94.50;;;;;;5043031;28;20021;-88
2020/12/28 06:38:59;;;;;;;8.63;6.13;;;5.50;94.50;;;;;;5052755;28;20082;-90
2020/12/28 06:41:29;;;;;;;9.35;6.07;;;5.50;94.50;;;;;;5062905;28;20024;-89
2020/12/28 06:44:00;;;;;;;9.47;6.50;;;5.50;94.50;;;;;;5074501;28;20032;-91
2020/12/28 06:46:27;;;;;;;10.68;6.75;;;5.60;94.50;;;;;;5063820;28;20024;-90
2020/12/28 06:48:53;;;;;;;10.75;7.25;;;5.50;94.50;;;;;;5089253;28;20024;-90
2020/12/28 06:51:21;;;;;;;11.48;8.10;;;5.50;94.60;;;;;;5078592;28;20040;-89
2020/12/28 06:53:52;;;;;;;10.85;7.97;;;5.50;94.50;;;;;;5077470;28;20476;-89
2020/12/28 06:56:18;;;;;;;11.52;7.70;;;5.50;94.60;;;;;;5077104;28;20024;-87
2020/12/28 06:58:44;;;;;;;11.57;7.25;;;5.50;94.60;;;;;;5060409;28;20030;-90
2020/12/28 07:01:09;;;;;;;10.65;7.13;;;5.50;94.70;;;;;;5072326;28;20045;-90
2020/12/28 07:03:35;;;;;;;12.07;7.53;;;5.60;94.70;;;;;;5040685;28;20533;-90
2020/12/28 07:06:02;;;;;;;11.13;7.25;;;5.60;94.70;;;;;;5055550;28;20519;-89
2020/12/28 07:08:49;;;;;;;10.52;7.13;;;5.60;94.70;;;;;;5058585;28;20052;-90
2020/12/28 07:11:21;;;;;;;10.93;6.85;;;5.60;94.80;;;;;;5087501;28;20796;-90
2020/12/28 07:13:47;;;;;;;11.05;6.63;;;5.60;94.80;;;;;;5107700;28;20051;-88
2020/12/28 07:16:13;;;;;;;10.07;6.53;;;5.70;94.90;;;;;;5079583;28;20073;-90
2020/12/28 07:18:39;;;;;;;11.50;6.95;;;5.70;94.90;;;;;;5075053;28;20020;-91
2020/12/28 07:21:07;;;;;;;10.88;7.32;;;5.70;94.90;;;;;;5091581;28;20038;-89
2020/12/28 07:23:33;;;;;;;10.70;7.32;;;5.70;94.80;;;;;;5115106;28;20110;-90
2020/12/28 07:26:06;;;;;;;12.55;7.63;;;5.70;94.80;;;;;;5072600;28;20032;-90
2020/12/28 07:28:32;;;;;;;12.02;8.20;;;5.70;94.80;;;;;;5094240;28;20047;-90
2020/12/28 07:31:00;;;;;;;11.70;7.07;;;5.70;94.80;;;;;;5065708;28;20485;-90
2020/12/28 07:33:26;;;;;;;13.95;8.80;;;5.70;94.80;;;;;;5071489;28;20065;-90
2020/12/28 07:36:05;;;;;;;15.32;8.50;;;5.60;94.70;;;;;;5056786;28;20028;-90
2020/12/28 07:38:30;;;;;;;15.23;8.85;;;5.60;94.50;;;;;;5108493;28;20030;-90
2020/12/28 07:40:56;;;;;;;13.68;8.18;;;5.60;94.40;;;;;;5087437;28;20133;-90
2020/12/28 07:43:22;;;;;;;17.08;9.00;;;5.50;94.20;;;;;;5091636;28;20038;-86
2020/12/28 07:45:48;;;;;;;17.85;9.00;;;5.50;94.10;;;;;;5074196;28;20028;-88
2020/12/28 07:48:18;;;;;;;11.63;6.72;;;5.40;94.20;;;;;;5062274;28;20116;-90
2020/12/28 07:50:46;;;;;;;14.20;7.82;;;5.50;94.40;;;;;;5083476;28;20016;-89
2020/12/28 07:53:19;;;;;;;12.70;7.60;;;5.30;94.20;;;;;;5083654;28;20036;-90
2020/12/28 07:56:06;;;;;;;10.50;6.07;;;5.40;94.30;;;;;;5080459;28;20047;-89
2020/12/28 07:58:55;;;;;;;10.52;5.93;;;5.40;94.50;;;;;;5094390;28;20024;-91
2020/12/28 08:01:31;;;;;;;10.82;5.97;;;5.40;94.50;;;;;;5074752;28;20077;-89
2020/12/28 08:04:01;;;;;;;8.98;5.45;;;5.40;94.50;;;;;;5081482;28;20024;-88
2020/12/28 08:06:27;;;;;;;10.60;5.78;;;5.40;94.50;;;;;;5082608;28;20020;-91
2020/12/28 08:09:00;;;;;;;9.02;5.18;;;5.40;94.50;;;;;;5077269;28;20571;-92
2020/12/28 08:11:29;;;;;;;9.00;4.82;;;5.40;94.60;;;;;;5094209;28;20031;-88
2020/12/28 08:13:55;;;;;;;9.32;5.18;;;5.40;94.60;;;;;;5065338;28;20028;-91
2020/12/28 08:16:20;;;;;;;9.02;5.28;;;5.50;94.60;;;;;;5064641;28;20073;-92
2020/12/28 08:18:51;;;;;;;7.55;4.78;;;5.40;94.60;;;;;;5049573;28;20080;-91
2020/12/28 08:21:17;;;;;;;8.43;4.63;;;5.50;94.60;;;;;;5038972;28;20027;-93
2020/12/28 08:23:57;;;;;;;8.45;4.85;;;5.50;94.60;;;;;;5059920;28;20028;-93
2020/12/28 08:26:27;;;;;;;6.50;4.55;;;5.50;94.60;;;;;;5067811;28;20061;-90
2020/12/28 08:29:02;;;;;;;8.63;5.32;;;5.50;94.60;;;;;;5058635;28;20052;-92
2020/12/28 08:31:29;;;;;;;7.13;4.55;;;5.40;94.50;;;;;;5046653;28;20127;-90
2020/12/28 08:34:06;;;;;;;9.60;4.95;;;5.50;94.70;;;;;;5054572;28;20085;-92
2020/12/28 08:36:34;;;;;;;6.38;4.70;;;5.50;94.60;;;;;;5068086;28;20070;-91
2020/12/28 08:39:21;;;;;;;8.65;4.88;;;5.50;94.70;;;;;;5055601;28;20177;-93
2020/12/28 08:42:00;;;;;;;7.57;4.20;;;5.50;94.60;;;;;;5068893;28;20496;-91
2020/12/28 08:44:37;;;;;;;8.35;4.63;;;5.50;94.70;;;;;;5066084;28;20028;-91
2020/12/28 08:47:12;;;;;;;8.55;4.68;;;5.50;94.60;;;;;;5075203;28;20016;-91
2020/12/28 08:49:41;;;;;;;7.20;4.00;;;5.50;94.70;;;;;;5055938;28;20056;-87
2020/12/28 08:52:09;;;;;;;6.15;4.28;;;5.50;94.70;;;;;;5062782;28;20036;-91
2020/12/28 08:54:34;;;;;;;8.88;4.45;;;5.50;94.70;;;;;;5057297;28;20013;-88
2020/12/28 08:57:00;;;;;;;7.13;3.90;;;5.50;94.70;;;;;;5067153;28;20096;-92
2020/12/28 08:59:26;;;;;;;7.38;3.88;;;5.50;94.80;;;;;;5065489;28;20464;-92
2020/12/28 09:01:53;;;;;;;7.03;4.05;;;5.50;94.80;;;;;;5082476;28;20368;-92
2020/12/28 09:04:19;;;;;;;7.35;4.40;;;5.60;94.80;;;;;;5064712;28;20058;-93
2020/12/28 09:06:45;;;;;;;6.47;4.43;;;5.60;94.80;;;;;;5067449;28;20495;-91
2020/12/28 09:09:11;;;;;;;7.57;4.80;;;5.50;94.70;;;;;;5053941;28;20020;-93
2020/12/28 09:11:36;;;;;;;5.63;3.80;;;5.40;94.60;;;;;;5040424;28;20037;-93
2020/12/28 09:14:02;;;;;;;6.72;4.28;;;5.50;94.70;;;;;;5082775;28;20039;-92
2020/12/28 09:16:28;;;;;;;8.57;4.97;;;5.50;94.70;;;;;;5070896;28;20028;-94
2020/12/28 09:18:54;;;;;;;8.70;5.57;;;5.50;94.60;;;;;;5063801;28;20031;-92
2020/12/28 09:21:21;;;;;;;7.07;4.88;;;5.50;94.50;;;;;;5056138;28;20102;-90
2020/12/28 09:23:47;;;;;;;10.23;5.32;;;5.50;95.00;;;;;;5039999;28;20032;-93
2020/12/28 09:26:13;;;;;;;6.82;4.25;;;5.50;94.50;;;;;;5072079;28;20824;-92
2020/12/28 09:28:39;;;;;;;8.65;4.65;;;5.50;94.60;;;;;;5060815;28;20123;-92
2020/12/28 09:31:04;;;;;;;6.25;3.90;;;5.50;94.60;;;;;;5069024;28;20461;-91
2020/12/28 09:33:30;;;;;;;7.20;3.47;;;5.50;94.70;;;;;;5057829;28;20036;-93
2020/12/28 09:35:56;;;;;;;7.80;4.10;;;5.60;94.80;;;;;;5052076;28;20025;-93
2020/12/28 09:38:21;;;;;;;6.38;3.75;;;5.60;94.70;;;;;;5085264;28;20032;-93
2020/12/28 09:40:47;;;;;;;5.82;3.40;;;5.50;94.60;;;;;;5057123;28;20544;-92
2020/12/28 09:43:12;;;;;;;5.85;3.15;;;5.60;94.80;;;;;;5062946;28;20440;-92
2020/12/28 09:45:38;;;;;;;6.32;3.83;;;5.60;94.80;;;;;;5058185;28;20035;-90
2020/12/28 09:48:05;;;;;;;6.05;3.78;;;5.70;94.80;;;;;;5069245;28;20024;-93
2020/12/28 09:50:31;;;;;;;7.47;3.78;;;5.70;94.70;;;;;;5046601;28;20092;-92
2020/12/28 09:52:56;;;;;;;8.70;3.55;;;5.70;94.40;;;;;;5074681;28;20025;-91
2020/12/28 09:55:22;;;;;;;6.50;3.70;;;5.60;94.50;;;;;;5047153;28;20116;-90
2020/12/28 09:57:48;;;;;;;6.03;3.28;;;5.70;94.50;;;;;;5063494;28;20535;-89
2020/12/28 10:00:14;;;;;;;6.50;3.70;;;5.70;94.40;;;;;;5054650;28;20032;-90
2020/12/28 10:02:40;;;;;;;6.03;3.15;;;5.60;94.20;;;;;;5071553;28;20177;-87
2020/12/28 10:05:09;;;;;;;6.95;3.60;;;5.70;94.40;;;;;;5061423;28;20074;-85
2020/12/28 10:07:37;;;;;;;6.18;3.10;;;5.70;94.40;;;;;;5055025;28;20024;-87
2020/12/28 10:10:09;;;;;;;6.00;3.22;;;5.70;94.30;;;;;;5073504;28;20027;-89
2020/12/28 10:12:38;;;;;;;6.00;2.58;;;5.70;94.30;;;;;;5071923;28;20036;-88
2020/12/28 10:15:05;;;;;;;4.80;2.40;;;5.70;94.20;;;;;;5071768;28;20490;-89
2020/12/28 10:17:31;;;;;;;5.85;2.78;;;5.70;94.20;;;;;;5062360;28;20016;-87
2020/12/28 10:19:57;;;;;;;6.18;2.97;;;5.70;94.10;;;;;;5055429;28;20054;-88
2020/12/28 10:22:23;;;;;;;7.13;2.83;;;5.70;94.20;;;;;;5048491;28;20124;-88
2020/12/28 10:24:51;;;;;;;4.40;2.80;;;5.80;94.30;;;;;;5067428;28;20039;-87
2020/12/28 10:27:17;;;;;;;6.22;2.80;;;5.80;94.30;;;;;;5074579;28;20028;-87
2020/12/28 10:29:43;;;;;;;4.43;2.60;;;5.80;94.20;;;;;;5072516;28;20549;-88
2020/12/28 10:32:11;;;;;;;5.68;2.25;;;5.90;94.20;;;;;;5053703;28;20047;-87
2020/12/28 10:34:37;;;;;;;6.68;2.40;;;5.90;94.10;;;;;;5046078;28;20468;-91
2020/12/28 10:37:03;;;;;;;5.57;2.90;;;5.90;94.10;;;;;;5073537;28;20094;-90
2020/12/28 10:39:28;;;;;;;4.68;2.40;;;5.90;94.10;;;;;;5088574;28;20032;-91
2020/12/28 10:41:54;;;;;;;6.10;2.55;;;6.00;94.00;;;;;;5057750;28;20034;-89
2020/12/28 10:44:21;;;;;;;4.35;2.13;;;6.00;94.10;;;;;;5075540;28;20035;-88
2020/12/28 10:46:47;;;;;;;5.18;2.40;;;6.10;93.90;;;;;;5056921;28;20020;-89
2020/12/28 10:49:12;;;;;;;5.13;2.13;;;6.20;94.00;;;;;;5055393;28;20025;-88
2020/12/28 10:51:38;;;;;;;4.38;2.08;;;6.20;93.90;;;;;;5058623;28;20161;-89
2020/12/28 10:54:04;;;;;;;3.95;2.05;;;6.20;93.80;;;;;;5083674;28;20067;-90
2020/12/28 10:56:31;;;;;;;2.58;1.63;;;6.20;93.70;;;;;;5076398;28;20028;-91
2020/12/28 10:58:58;;;;;;;3.90;1.80;;;6.30;93.90;;;;;;5059045;28;20034;-90
2020/12/28 11:01:26;;;;;;;6.55;1.98;;;6.30;93.80;;;;;;5056531;28;20021;-93
2020/12/28 11:03:52;;;;;;;4.68;1.95;;;6.30;93.10;;;;;;5072623;28;20021;-90
2020/12/28 11:06:23;;;;;;;4.88;1.67;;;6.30;93.10;;;;;;5071314;28;20095;-92
2020/12/28 11:08:51;;;;;;;4.68;2.15;;;6.30;93.30;;;;;;5095734;28;20021;-92
2020/12/28 11:11:18;;;;;;;5.68;1.85;;;6.30;93.40;;;;;;5068980;28;20043;-95
2020/12/28 11:13:45;;;;;;;3.78;2.00;;;6.30;93.20;;;;;;5109486;28;20043;-93
2020/12/28 11:16:10;;;;;;;5.90;1.92;;;6.40;93.20;;;;;;5073795;28;20126;-94
2020/12/28 11:18:38;;;;;;;6.07;2.00;;;6.40;93.10;;;;;;5065274;28;20021;-96
2020/12/28 11:21:04;;;;;;;5.13;2.00;;;6.40;93.20;;;;;;5070453;28;20082;-95
2020/12/28 11:23:58;;;;;;;4.45;1.90;;;6.40;92.80;;;;;;5050989;28;20476;-95
2020/12/28 11:26:19;;;;;;;4.20;1.73;;;6.40;93.20;;;;;;5070314;28;20047;-96
2020/12/28 11:28:45;;;;;;;3.85;1.70;;;6.40;93.10;;;;;;5076334;28;20048;-94
2020/12/28 11:31:15;;;;;;;5.82;1.88;;;6.50;92.90;;;;;;5062278;28;20521;-93
2020/12/28 11:33:40;;;;;;;5.70;1.92;;;6.50;93.00;;;;;;5049538;28;20071;-94
2020/12/28 11:36:06;;;;;;;3.85;1.95;;;6.50;93.10;;;;;;5059824;28;20523;-92
2020/12/28 11:38:32;;;;;;;3.83;1.83;;;6.50;92.70;;;;;;5056992;28;20032;-94
2020/12/28 11:40:57;;;;;;;7.18;1.77;;;6.50;92.70;;;;;;5045394;28;20488;-92
2020/12/28 11:43:23;;;;;;;3.50;1.60;;;6.50;92.50;;;;;;5061060;28;20490;-95
2020/12/28 11:45:48;;;;;;;4.95;1.50;;;6.50;92.70;;;;;;5057865;28;20028;-94
2020/12/28 11:48:14;;;;;;;3.28;1.38;;;6.60;92.80;;;;;;5026125;28;20053;-94
2020/12/28 11:50:40;;;;;;;4.28;1.80;;;6.60;92.70;;;;;;5050446;28;20036;-94
2020/12/28 11:53:05;;;;;;;5.35;1.67;;;6.50;92.50;;;;;;5058592;28;20063;-87
2020/12/28 11:56:01;;;;;;;3.10;1.70;;;6.60;92.30;;;;;;5089051;28;20372;-94
2020/12/28 11:58:17;;;;;;;6.35;2.15;;;6.60;92.20;;;;;;5053975;28;20040;-93
2020/12/28 12:00:42;;;;;;;3.70;1.52;;;6.50;92.20;;;;;;5069183;28;20024;-93
2020/12/28 12:03:08;;;;;;;5.20;1.92;;;6.60;92.10;;;;;;5053442;28;20052;-93
2020/12/28 12:05:34;;;;;;;5.50;1.80;;;6.60;92.30;;;;;;5061419;28;20064;-92
2020/12/28 12:08:00;;;;;;;5.50;1.58;;;6.60;92.20;;;;;;5055004;28;20440;-94
2020/12/28 12:10:26;;;;;;;4.32;1.75;;;6.60;91.70;;;;;;5069187;28;20029;-92
2020/12/28 12:12:51;;;;;;;7.03;1.50;;;6.60;92.00;;;;;;5063443;28;20029;-90
2020/12/28 12:15:17;;;;;;;3.03;1.55;;;6.60;92.10;;;;;;5049851;28;20028;-86
2020/12/28 12:17:46;;;;;;;4.38;1.40;;;6.60;91.80;;;;;;5037718;28;20112;-92
2020/12/28 12:20:11;;;;;;;2.53;1.40;;;6.60;91.60;;;;;;5051814;28;20048;-92
2020/12/28 12:22:40;;;;;;;3.28;1.50;;;6.70;91.70;;;;;;5044510;28;20064;-91
2020/12/28 12:25:06;;;;;;;2.63;1.48;;;6.60;91.70;;;;;;5071184;28;20097;-92
2020/12/28 12:27:31;;;;;;;2.70;1.42;;;6.70;91.90;;;;;;5069687;28;20472;-95
2020/12/28 12:29:57;;;;;;;3.53;1.38;;;6.70;91.70;;;;;;5048915;28;20082;-93
2020/12/28 12:32:23;;;;;;;4.20;1.20;;;6.70;91.80;;;;;;5061545;28;20484;-94
2020/12/28 12:34:48;;;;;;;7.22;1.70;;;6.70;91.70;;;;;;5063510;28;20073;-90
2020/12/28 12:37:14;;;;;;;2.53;1.33;;;6.80;91.60;;;;;;5090670;28;20046;-92
2020/12/28 12:39:42;;;;;;;4.15;1.60;;;6.80;91.70;;;;;;5074640;28;20106;-94
2020/12/28 12:42:08;;;;;;;3.00;1.33;;;6.80;91.80;;;;;;5054869;28;20040;-93
2020/12/28 12:44:34;;;;;;;5.07;1.85;;;6.80;91.80;;;;;;5052982;28;20032;-94
2020/12/28 12:46:59;;;;;;;4.28;1.58;;;6.80;91.40;;;;;;5050647;28;20452;-95
2020/12/28 12:49:25;;;;;;;6.10;2.38;;;6.90;91.80;;;;;;5058499;28;20036;-94
2020/12/28 12:52:13;;;;;;;3.97;1.60;;;6.90;91.90;;;;;;5067598;28;20033;-91